OMA256 OOMS-OBBI
Flight info
| Callsign | OMA256 |
|---|---|
| Flight time | N/A |
| Altitude | 32000 |
| Route | MCT N718 ITRAX P899 ROVOS G462 UKUVO Q563 IMGUX P699 ORMID Y856 ORDIG |
| Aircraft | T154/M-SDGRWY/S |
Departure
| Time | N/A |
|---|---|
| Airport | Muscat International Airport (OOMS) |
Arrival
| Time | 2026-05-04 17:05 |
|---|---|
| Airport | Bahrain International Airport (OBBI) |
| Time | Latitude | Longitude | Altitude | Speed | Heading |
|---|---|---|---|---|---|
| 2026-05-04 16:01 | 23.65968 | 56.94322 | 29128 ft | 414 kts | 293° |
| 2026-05-04 16:01 | 23.67137 | 56.91436 | 29592 ft | 415 kts | 293° |
| 2026-05-04 16:01 | 23.68306 | 56.88547 | 30042 ft | 417 kts | 293° |
| 2026-05-04 16:02 | 23.69463 | 56.85686 | 30481 ft | 418 kts | 293° |
| 2026-05-04 16:02 | 23.70640 | 56.82774 | 30911 ft | 419 kts | 293° |
| 2026-05-04 16:02 | 23.73004 | 56.76917 | 31187 ft | 426 kts | 293° |
| 2026-05-04 16:03 | 23.74201 | 56.73951 | 31332 ft | 426 kts | 293° |
| 2026-05-04 16:03 | 23.76586 | 56.68031 | 31309 ft | 429 kts | 293° |
| 2026-05-04 16:04 | 23.78993 | 56.62050 | 31291 ft | 431 kts | 293° |
| 2026-05-04 16:04 | 23.82615 | 56.53034 | 31276 ft | 434 kts | 293° |
| 2026-05-04 16:05 | 23.85031 | 56.47013 | 31271 ft | 435 kts | 293° |
| 2026-05-04 16:06 | 23.88673 | 56.37915 | 31272 ft | 437 kts | 293° |
| 2026-05-04 16:07 | 23.93528 | 56.25724 | 31264 ft | 439 kts | 292° |
| 2026-05-04 16:07 | 23.98260 | 56.17151 | 31279 ft | 441 kts | 303° |
| 2026-05-04 16:08 | 23.99981 | 56.14402 | 31268 ft | 441 kts | 302° |
| 2026-05-04 16:09 | 24.08149 | 56.00199 | 31243 ft | 442 kts | 296° |
| 2026-05-04 16:10 | 24.13988 | 55.88375 | 31210 ft | 442 kts | 297° |
| 2026-05-04 16:11 | 24.19818 | 55.76514 | 31210 ft | 442 kts | 297° |
| 2026-05-04 16:12 | 24.28531 | 55.58715 | 31202 ft | 442 kts | 297° |
| 2026-05-04 16:13 | 24.34305 | 55.46884 | 31193 ft | 442 kts | 297° |
| 2026-05-04 16:14 | 24.40093 | 55.34992 | 31182 ft | 442 kts | 296° |
| 2026-05-04 16:16 | 24.47300 | 55.20102 | 31158 ft | 443 kts | 296° |
| 2026-05-04 16:17 | 24.54521 | 55.05178 | 31168 ft | 443 kts | 296° |
| 2026-05-04 16:18 | 24.60266 | 54.93270 | 31161 ft | 443 kts | 296° |
| 2026-05-04 16:19 | 24.67460 | 54.78316 | 31157 ft | 443 kts | 296° |
| 2026-05-04 16:20 | 24.74624 | 54.63376 | 31147 ft | 442 kts | 296° |
| 2026-05-04 16:22 | 24.81760 | 54.48447 | 31148 ft | 442 kts | 296° |
| 2026-05-04 16:23 | 24.90948 | 54.30896 | 31108 ft | 443 kts | 300° |
| 2026-05-04 16:25 | 25.00774 | 54.13699 | 31147 ft | 443 kts | 300° |
| 2026-05-04 16:26 | 25.12232 | 53.93597 | 31146 ft | 443 kts | 300° |
| 2026-05-04 16:28 | 25.20398 | 53.79243 | 31166 ft | 442 kts | 299° |
| 2026-05-04 16:29 | 25.31312 | 53.58843 | 31169 ft | 441 kts | 298° |
| 2026-05-04 16:31 | 25.39083 | 53.44233 | 31167 ft | 441 kts | 298° |
| 2026-05-04 16:32 | 25.48350 | 53.26716 | 31143 ft | 441 kts | 297° |
| 2026-05-04 16:33 | 25.50527 | 53.20449 | 31153 ft | 436 kts | 281° |
| 2026-05-04 16:33 | 25.51810 | 53.13924 | 31162 ft | 436 kts | 282° |
| 2026-05-04 16:34 | 25.53817 | 53.04144 | 31268 ft | 434 kts | 281° |
| 2026-05-04 16:35 | 25.59638 | 52.85286 | 31235 ft | 440 kts | 299° |
| 2026-05-04 16:36 | 25.61246 | 52.82415 | 31454 ft | 435 kts | 298° |
| 2026-05-04 16:36 | 25.63869 | 52.76531 | 31877 ft | 424 kts | 290° |
| 2026-05-04 16:37 | 25.67235 | 52.67429 | 31800 ft | 429 kts | 289° |
| 2026-05-04 16:37 | 25.69460 | 52.61321 | 30883 ft | 429 kts | 289° |
| 2026-05-04 16:38 | 25.71710 | 52.55289 | 30019 ft | 421 kts | 291° |
| 2026-05-04 16:39 | 25.75305 | 52.46604 | 28796 ft | 408 kts | 292° |
| 2026-05-04 16:39 | 25.77669 | 52.40997 | 28021 ft | 399 kts | 292° |
| 2026-05-04 16:40 | 25.80000 | 52.35466 | 27250 ft | 391 kts | 292° |
| 2026-05-04 16:40 | 25.82268 | 52.30010 | 26270 ft | 389 kts | 291° |
| 2026-05-04 16:41 | 25.84461 | 52.24674 | 25773 ft | 375 kts | 291° |
| 2026-05-04 16:41 | 25.87632 | 52.16937 | 24769 ft | 364 kts | 291° |
| 2026-05-04 16:42 | 25.90680 | 52.09420 | 23996 ft | 348 kts | 291° |
| 2026-05-04 16:43 | 25.93850 | 52.05557 | 23794 ft | 347 kts | 327° |
| 2026-05-04 16:43 | 25.98160 | 52.03241 | 23688 ft | 343 kts | 331° |
| 2026-05-04 16:43 | 26.00355 | 52.02142 | 23288 ft | 346 kts | 332° |
| 2026-05-04 16:44 | 26.09178 | 51.97686 | 21915 ft | 349 kts | 332° |
| 2026-05-04 16:45 | 26.13679 | 51.95377 | 21039 ft | 363 kts | 332° |
| 2026-05-04 16:46 | 26.20417 | 51.91351 | 19947 ft | 370 kts | 313° |
| 2026-05-04 16:46 | 26.22566 | 51.86401 | 19200 ft | 355 kts | 279° |
| 2026-05-04 16:47 | 26.24343 | 51.81383 | 18396 ft | 345 kts | 295° |
| 2026-05-04 16:47 | 26.26332 | 51.76625 | 17514 ft | 337 kts | 293° |
| 2026-05-04 16:48 | 26.29121 | 51.69636 | 16380 ft | 321 kts | 293° |
| 2026-05-04 16:48 | 26.30020 | 51.67374 | 16015 ft | 317 kts | 293° |
| 2026-05-04 16:49 | 26.31798 | 51.62897 | 15310 ft | 319 kts | 294° |
| 2026-05-04 16:49 | 26.33654 | 51.58219 | 14750 ft | 339 kts | 294° |
| 2026-05-04 16:50 | 26.35615 | 51.53268 | 13897 ft | 359 kts | 294° |
| 2026-05-04 16:50 | 26.37606 | 51.48231 | 13132 ft | 351 kts | 295° |
| 2026-05-04 16:51 | 26.39537 | 51.43344 | 12524 ft | 340 kts | 295° |
| 2026-05-04 16:51 | 26.40469 | 51.40980 | 12348 ft | 323 kts | 295° |
| 2026-05-04 16:51 | 26.42180 | 51.36639 | 12032 ft | 294 kts | 295° |
| 2026-05-04 16:52 | 26.43784 | 51.32556 | 11987 ft | 283 kts | 295° |
| 2026-05-04 16:52 | 26.44567 | 51.30554 | 12038 ft | 284 kts | 295° |
| 2026-05-04 16:53 | 26.45736 | 51.26345 | 11993 ft | 293 kts | 268° |
| 2026-05-04 16:53 | 26.43131 | 51.20123 | 11990 ft | 305 kts | 242° |
| 2026-05-04 16:54 | 26.42018 | 51.18110 | 11618 ft | 303 kts | 242° |
| 2026-05-04 16:55 | 26.37518 | 51.10195 | 9696 ft | 302 kts | 238° |
| 2026-05-04 16:55 | 26.34996 | 51.06479 | 8585 ft | 307 kts | 237° |
| 2026-05-04 16:56 | 26.32306 | 51.02705 | 7341 ft | 312 kts | 227° |
| 2026-05-04 16:56 | 26.27386 | 50.98085 | 5884 ft | 303 kts | 224° |
| 2026-05-04 16:57 | 26.25808 | 50.96592 | 5463 ft | 299 kts | 224° |
| 2026-05-04 16:57 | 26.22606 | 50.93703 | 4578 ft | 294 kts | 218° |
| 2026-05-04 16:58 | 26.17836 | 50.90198 | 4438 ft | 239 kts | 217° |
| 2026-05-04 16:58 | 26.16571 | 50.89183 | 4265 ft | 216 kts | 229° |
| 2026-05-04 16:59 | 26.14983 | 50.86588 | 3707 ft | 201 kts | 252° |
| 2026-05-04 17:00 | 26.16538 | 50.81306 | 2684 ft | 191 kts | 313° |
| 2026-05-04 17:00 | 26.18798 | 50.77696 | 2017 ft | 186 kts | 308° |
| 2026-05-04 17:01 | 26.20144 | 50.75336 | 2017 ft | 161 kts | 308° |
| 2026-05-04 17:01 | 26.21172 | 50.73542 | 1775 ft | 130 kts | 310° |
| 2026-05-04 17:02 | 26.22159 | 50.71881 | 1436 ft | 130 kts | 310° |
| 2026-05-04 17:02 | 26.23180 | 50.70133 | 1121 ft | 138 kts | 308° |
| 2026-05-04 17:03 | 26.23698 | 50.69237 | 924 ft | 135 kts | 307° |
| 2026-05-04 17:03 | 26.24199 | 50.68378 | 746 ft | 131 kts | 307° |
| 2026-05-04 17:03 | 26.25182 | 50.66690 | 417 ft | 128 kts | 305° |
| 2026-05-04 17:04 | 26.26128 | 50.65037 | 97 ft | 126 kts | 304° |
| 2026-05-04 17:04 | 26.26919 | 50.63655 | 15 ft | 67 kts | 302° |
| 2026-05-04 17:05 | 26.27236 | 50.63098 | 14 ft | 31 kts | 294° |
| 2026-05-04 17:05 | 26.27256 | 50.62837 | 14 ft | 6 kts | 274° |
| 2026-05-04 17:06 | 26.27259 | 50.62784 | 14 ft | 3 kts | 274° |
| 2026-05-04 17:06 | 26.27261 | 50.62748 | 14 ft | 5 kts | 279° |
| 2026-05-04 17:07 | 26.27246 | 50.62662 | 14 ft | 2 kts | 217° |
| 2026-05-04 17:07 | 26.27240 | 50.62658 | 14 ft | 0 kts | 214° |
| 2026-05-04 17:07 | 26.27239 | 50.62657 | 14 ft | 0 kts | 214° |
| 2026-05-04 17:08 | 26.27232 | 50.62651 | 14 ft | 1 kts | 214° |
| 2026-05-04 17:08 | 26.27201 | 50.62624 | 14 ft | 3 kts | 241° |
| 2026-05-04 17:08 | 26.27200 | 50.62596 | 14 ft | 4 kts | 290° |